Time;durP1;ratioP1;P1;durP2;ratioP2;P2;SDS_P1;SDS_P2;PMS_P1;PMS_P2;Temp;Humidity;BMP_temperature;BMP_pressure;BME280_temperature;BME280_humidity;BME280_pressure;Samples;Min_cycle;Max_cycle;Signal;HPM_P1;HPM_P2
2023/01/30 00:04:11;;;;;;;28.17;15.90;;;;;;;2.81;68.81;100714.41;20863198;28;20250;-87
2023/01/30 00:14:14;;;;;;;28.23;15.33;;;;;;;2.41;71.88;100720.31;20850449;28;20289;-86
2023/01/30 00:24:17;;;;;;;26.33;15.40;;;;;;;3.29;68.87;100719.84;20877308;28;20212;-87
2023/01/30 00:34:20;;;;;;;24.73;15.97;;;;;;;3.04;70.62;100697.41;20856962;28;20213;-85
2023/01/30 00:54:42;;;;;;;29.83;17.10;;;;;;;3.02;70.98;100643.25;20841846;28;20274;-87
2023/01/30 01:04:45;;;;;;;28.93;16.60;;;;;;;2.94;71.84;100647.38;20893577;28;20216;-87
2023/01/30 01:14:47;;;;;;;27.73;17.60;;;;;;;3.42;70.93;100626.09;20872172;28;20274;-86
2023/01/30 01:24:50;;;;;;;28.70;17.50;;;;;;;2.98;70.89;100603.25;20859623;28;20249;-85
2023/01/30 01:34:52;;;;;;;28.73;17.00;;;;;;;3.43;72.52;100597.22;20880074;28;20212;-87
2023/01/30 01:45:01;;;;;;;30.50;17.30;;;;;;;3.29;75.09;100586.56;20808246;28;20261;-86
2023/01/30 01:55:06;;;;;;;27.00;17.00;;;;;;;3.46;73.93;100593.91;20846376;28;20250;-86
2023/01/30 02:05:10;;;;;;;28.07;16.83;;;;;;;3.22;75.15;100560.13;20854397;28;20219;-86
2023/01/30 02:15:12;;;;;;;24.80;16.80;;;;;;;3.22;75.17;100551.81;20885856;28;20239;-87
2023/01/30 02:26:03;;;;;;;27.80;16.70;;;;;;;3.71;74.21;100519.03;20889940;28;20756;-86
2023/01/30 02:36:29;;;;;;;31.10;17.37;;;;;;;2.84;76.96;100489.09;20884928;28;20266;-87
2023/01/30 02:46:35;;;;;;;27.10;17.83;;;;;;;3.50;74.09;100489.47;20828929;28;20632;-88
2023/01/30 02:56:43;;;;;;;30.43;19.50;;;;;;;3.89;73.06;100496.28;20908538;28;20242;-87
2023/01/30 03:07:44;;;;;;;28.80;17.67;;;;;;;3.85;73.43;100470.16;20846986;28;20262;-87
2023/01/30 03:17:46;;;;;;;25.90;16.03;;;;;;;3.47;75.07;100465.03;20766332;28;20235;-89
2023/01/30 03:27:52;;;;;;;29.93;18.70;;;;;;;4.08;73.62;100437.41;20878367;28;20215;-86
2023/01/30 03:37:57;;;;;;;28.83;17.83;;;;;;;4.15;72.90;100424.03;20886487;28;20281;-86
2023/01/30 03:47:59;;;;;;;28.43;18.47;;;;;;;4.08;75.25;100412.38;20894254;28;20219;-88
2023/01/30 03:58:01;;;;;;;29.27;17.83;;;;;;;4.24;74.94;100405.75;20882034;28;20593;-87
2023/01/30 04:08:07;;;;;;;30.67;18.33;;;;;;;4.00;76.35;100397.91;20862350;28;20219;-88
2023/01/30 04:18:09;;;;;;;30.30;17.43;;;;;;;3.79;76.87;100387.03;20883752;28;20192;-87
2023/01/30 04:28:22;;;;;;;29.33;17.90;;;;;;;4.24;76.28;100362.09;20879423;28;20605;-88
2023/01/30 04:38:28;;;;;;;26.47;16.43;;;;;;;4.29;75.20;100369.56;20846783;28;20220;-89
2023/01/30 04:48:31;;;;;;;26.40;17.07;;;;;;;3.77;77.36;100367.88;20907450;28;20281;-87
2023/01/30 04:58:35;;;;;;;22.97;16.37;;;;;;;4.15;76.38;100343.41;20883737;28;20192;-87
2023/01/30 05:08:38;;;;;;;22.73;14.23;;;;;;;4.28;76.45;100340.09;20905851;28;20224;-83
2023/01/30 05:18:40;;;;;;;22.60;13.90;;;;;;;5.14;73.38;100347.38;20946886;28;20188;-84
2023/01/30 05:28:43;;;;;;;18.47;13.73;;;;;;;4.62;75.06;100330.03;20901770;28;20215;-82
2023/01/30 05:38:45;;;;;;;17.83;12.87;;;;;;;4.56;75.68;100331.16;20858323;28;20208;-85
2023/01/30 05:48:47;;;;;;;19.50;13.60;;;;;;;4.98;76.15;100311.25;20899421;28;20275;-84
2023/01/30 05:58:51;;;;;;;18.67;14.03;;;;;;;5.37;75.31;100324.41;20831702;28;20234;-84
2023/01/30 06:08:54;;;;;;;17.87;13.67;;;;;;;5.56;74.59;100310.59;20925695;28;20232;-84
2023/01/30 06:18:56;;;;;;;21.80;16.43;;;;;;;5.03;75.97;100324.31;20872609;28;20196;-84
2023/01/30 06:28:58;;;;;;;27.20;18.03;;;;;;;5.31;76.76;100343.09;20906177;28;20216;-84
2023/01/30 06:39:00;;;;;;;25.33;18.13;;;;;;;6.08;72.72;100338.66;20913393;28;20220;-85
2023/01/30 06:49:03;;;;;;;28.93;20.43;;;;;;;5.39;75.57;100364.78;20895620;28;20293;-83
2023/01/30 06:59:05;;;;;;;30.77;18.67;;;;;;;5.51;75.41;100375.59;20870849;28;20201;-84
2023/01/30 07:09:07;;;;;;;28.30;19.00;;;;;;;5.99;74.04;100359.13;20882640;28;20228;-84
2023/01/30 07:19:09;;;;;;;25.57;18.03;;;;;;;5.65;73.44;100359.91;20871508;28;20192;-86
2023/01/30 07:29:12;;;;;;;26.67;17.67;;;;;;;5.92;72.83;100365.03;20882042;28;20277;-86
2023/01/30 07:39:14;;;;;;;26.03;17.70;;;;;;;5.98;72.78;100369.44;20875623;28;20285;-87
2023/01/30 07:49:16;;;;;;;23.20;16.10;;;;;;;5.78;72.74;100394.69;20885336;28;20254;-84
2023/01/30 07:59:18;;;;;;;16.87;10.57;;;;;;;5.35;72.13;100401.84;20918846;28;20208;-84
2023/01/30 08:09:21;;;;;;;13.07;6.37;;;;;;;5.65;68.53;100392.50;20882090;28;20252;-87
2023/01/30 08:19:23;;;;;;;14.20;6.13;;;;;;;6.36;66.66;100405.94;20877785;28;20242;-85
2023/01/30 08:29:25;;;;;;;11.83;4.17;;;;;;;5.55;69.46;100414.88;20894856;28;20436;-86
2023/01/30 08:39:27;;;;;;;11.00;3.17;;;;;;;5.92;66.47;100423.59;20898435;28;20770;-88
2023/01/30 08:49:29;;;;;;;13.93;3.97;;;;;;;6.40;63.18;100423.78;20878625;28;20564;-87
2023/01/30 08:59:31;;;;;;;11.00;2.50;;;;;;;5.94;65.02;100429.72;20905035;28;20574;-88
2023/01/30 09:09:34;;;;;;;12.93;2.70;;;;;;;6.36;61.88;100447.78;20876555;28;20560;-85
2023/01/30 09:19:36;;;;;;;7.27;1.70;;;;;;;5.84;62.18;100457.63;20879601;28;20243;-86
2023/01/30 09:29:38;;;;;;;11.40;2.00;;;;;;;5.56;61.60;100463.88;20907511;28;20666;-86
2023/01/30 09:39:40;;;;;;;7.83;2.20;;;;;;;6.31;60.04;100470.19;20865856;28;20204;-85
2023/01/30 09:50:19;;;;;;;14.30;2.30;;;;;;;5.86;59.88;100483.28;20894206;28;20229;-86
2023/01/30 10:00:42;;;;;;;8.67;1.63;;;;;;;5.39;61.17;100495.72;20892308;28;20204;-86
2023/01/30 10:10:53;;;;;;;9.67;2.00;;;;;;;5.64;60.56;100519.03;20898960;28;20220;-86
2023/01/30 10:21:19;;;;;;;10.40;1.97;;;;;;;6.40;57.65;100499.13;20901822;28;20277;-86
2023/01/30 10:31:23;;;;;;;15.70;1.97;;;;;;;6.24;57.83;100497.56;20897816;28;20488;-86
2023/01/30 10:41:33;;;;;;;11.73;2.07;;;;;;;5.85;59.28;100487.19;20893952;28;20552;-87
2023/01/30 10:51:38;;;;;;;7.37;1.63;;;;;;;5.95;56.89;100481.53;20881324;28;20507;-86
2023/01/30 11:01:50;;;;;;;11.10;2.17;;;;;;;6.15;57.46;100487.03;20902146;28;20280;-87
2023/01/30 11:11:54;;;;;;;12.27;2.13;;;;;;;6.28;55.44;100495.88;20902402;28;20211;-86
2023/01/30 11:22:01;;;;;;;6.37;1.37;;;;;;;6.35;57.57;100497.19;20862124;28;20211;-86
2023/01/30 11:32:11;;;;;;;7.73;2.07;;;;;;;5.62;56.72;100510.13;20862791;28;20199;-87
2023/01/30 11:42:13;;;;;;;10.27;2.23;;;;;;;6.47;55.52;100510.78;20862439;28;20276;-86
2023/01/30 11:52:16;;;;;;;11.93;2.50;;;;;;;6.03;56.46;100520.00;20896835;28;20222;-88
2023/01/30 12:02:23;;;;;;;10.97;1.47;;;;;;;6.29;57.03;100531.00;20858401;28;20208;-85
2023/01/30 12:12:43;;;;;;;11.27;2.10;;;;;;;5.94;58.32;100516.16;20862734;28;20281;-86
2023/01/30 12:23:10;;;;;;;11.50;1.80;;;;;;;6.67;55.37;100509.81;20865850;28;20624;-86
2023/01/30 12:33:15;;;;;;;14.23;2.83;;;;;;;6.41;55.58;100509.16;20860069;28;20333;-86
2023/01/30 12:43:39;;;;;;;10.93;2.20;;;;;;;6.61;54.26;100517.38;20890905;28;20261;-86
2023/01/30 12:53:56;;;;;;;12.60;2.33;;;;;;;7.00;52.27;100510.88;20893373;28;20200;-86
2023/01/30 13:04:17;;;;;;;8.33;1.60;;;;;;;6.60;53.01;100521.28;20890580;28;20262;-87
2023/01/30 13:14:36;;;;;;;17.73;3.37;;;;;;;6.87;51.52;100543.97;20912944;28;20563;-87
2023/01/30 13:24:54;;;;;;;10.97;2.20;;;;;;;6.38;54.48;100538.47;20886264;28;20238;-86
2023/01/30 13:34:58;;;;;;;13.27;2.00;;;;;;;7.16;49.72;100534.78;20894911;28;20238;-87
2023/01/30 13:45:00;;;;;;;9.60;2.20;;;;;;;7.11;49.58;100543.22;20882529;28;20223;-86
2023/01/30 13:55:14;;;;;;;10.47;2.17;;;;;;;7.24;49.44;100559.31;20876457;28;20458;-87
2023/01/30 14:05:51;;;;;;;14.10;3.23;;;;;;;7.05;48.17;100589.06;20885823;28;20220;-87
2023/01/30 14:15:56;;;;;;;11.77;2.37;;;;;;;7.05;48.64;100595.50;20882662;28;20628;-87
2023/01/30 14:25:58;;;;;;;14.57;2.43;;;;;;;6.72;48.93;100605.50;20874247;28;20249;-87
2023/01/30 14:36:01;;;;;;;9.33;1.67;;;;;;;7.53;47.69;100612.41;20838039;28;20251;-88
2023/01/30 14:46:18;;;;;;;10.80;2.00;;;;;;;6.97;48.62;100649.19;20876532;28;20637;-87
2023/01/30 14:56:46;;;;;;;8.83;2.43;;;;;;;6.61;49.38;100668.13;20893911;28;20223;-88
2023/01/30 15:06:48;;;;;;;11.17;2.23;;;;;;;6.27;53.08;100695.91;20881334;28;20495;-87
2023/01/30 15:16:58;;;;;;;13.97;2.47;;;;;;;6.10;53.24;100734.44;20852812;28;20743;-86
2023/01/30 15:27:59;;;;;;;9.63;2.17;;;;;;;6.74;53.79;100753.22;20854909;28;20251;-88
2023/01/30 15:38:01;;;;;;;13.43;2.40;;;;;;;6.65;54.26;100755.78;20776105;28;20254;-88
2023/01/30 15:48:41;;;;;;;15.23;2.43;;;;;;;6.43;55.23;100772.06;20859402;28;20596;-88
2023/01/30 15:58:43;;;;;;;11.50;1.90;;;;;;;6.76;52.78;100781.69;20888307;28;20595;-86
2023/01/30 16:08:55;;;;;;;11.10;2.53;;;;;;;7.23;51.86;100790.44;20883785;28;20223;-87
2023/01/30 16:19:03;;;;;;;17.93;2.83;;;;;;;6.95;51.38;100821.84;20920429;28;20199;-85
2023/01/30 16:29:10;;;;;;;19.33;2.50;;;;;;;6.82;51.23;100851.22;20897489;28;20219;-84
2023/01/30 16:39:33;;;;;;;12.27;2.40;;;;;;;6.70;50.90;100873.03;20908656;28;20235;-87
2023/01/30 16:49:35;;;;;;;8.53;1.87;;;;;;;6.65;51.44;100903.75;20875261;28;20243;-84
2023/01/30 16:59:39;;;;;;;10.77;2.37;;;;;;;7.31;48.96;100908.31;20887795;28;20223;-87
2023/01/30 17:09:44;;;;;;;17.87;2.57;;;;;;;7.24;49.80;100933.78;20901524;28;20246;-86
2023/01/30 17:19:47;;;;;;;10.87;2.30;;;;;;;6.43;52.31;100951.50;20888284;28;20273;-86
2023/01/30 17:29:49;;;;;;;12.03;2.13;;;;;;;7.63;49.47;100955.44;20894117;28;20251;-87
2023/01/30 17:39:52;;;;;;;12.93;2.07;;;;;;;6.81;51.39;100958.47;20897904;28;20607;-86
2023/01/30 17:49:54;;;;;;;18.47;2.53;;;;;;;6.64;52.74;101002.59;20874181;28;20281;-86
2023/01/30 17:59:56;;;;;;;17.20;2.83;;;;;;;6.73;52.46;101006.47;20889920;28;20283;-85
2023/01/30 18:09:58;;;;;;;15.63;2.70;;;;;;;6.21;54.63;101003.94;20881892;28;20243;-83
2023/01/30 18:20:02;;;;;;;11.30;3.03;;;;;;;6.90;52.66;101020.16;20894451;28;20196;-85
2023/01/30 18:30:05;;;;;;;10.77;2.10;;;;;;;6.36;54.39;101031.03;20859419;28;20220;-86
2023/01/30 18:40:08;;;;;;;13.80;2.87;;;;;;;6.53;54.42;101045.56;20912677;28;20638;-87
2023/01/30 18:50:10;;;;;;;13.27;2.20;;;;;;;6.27;54.41;101044.69;20897465;28;20685;-84
2023/01/30 19:00:13;;;;;;;13.90;2.50;;;;;;;5.78;55.27;101063.81;20891113;28;20203;-85
2023/01/30 19:10:18;;;;;;;11.43;2.80;;;;;;;5.86;55.20;101063.25;20863437;28;20250;-84
2023/01/30 19:20:21;;;;;;;17.40;3.30;;;;;;;6.01;54.66;101080.06;20874236;28;20553;-87
2023/01/30 19:30:25;;;;;;;12.07;2.43;;;;;;;6.27;54.45;101092.13;20885791;28;20273;-85
2023/01/30 19:40:28;;;;;;;14.43;2.13;;;;;;;5.54;55.21;101109.94;20856242;28;20211;-84
2023/01/30 19:50:31;;;;;;;16.47;2.30;;;;;;;5.36;56.33;101125.97;20853009;28;20617;-86
2023/01/30 20:00:33;;;;;;;16.43;2.30;;;;;;;6.12;53.71;101134.78;20875787;28;20472;-85
2023/01/30 20:10:36;;;;;;;13.23;2.57;;;;;;;6.20;54.30;101168.84;20832412;28;20235;-87
2023/01/30 20:20:38;;;;;;;17.43;4.27;;;;;;;6.41;53.65;101177.03;20860749;28;20188;-85
2023/01/30 20:30:40;;;;;;;11.63;2.93;;;;;;;6.20;54.05;101183.66;20878876;28;20487;-85
2023/01/30 20:40:42;;;;;;;17.10;3.03;;;;;;;5.72;56.49;101198.66;20882837;28;20482;-87
2023/01/30 20:50:45;;;;;;;13.03;3.03;;;;;;;5.66;57.05;101213.69;20871897;28;20224;-85
2023/01/30 21:00:47;;;;;;;17.67;2.80;;;;;;;5.57;57.93;101226.44;20858247;28;20497;-87
2023/01/30 21:10:49;;;;;;;13.07;3.03;;;;;;;5.98;57.01;101225.63;20870389;28;20220;-85
2023/01/30 21:20:51;;;;;;;19.03;3.17;;;;;;;6.04;56.82;101230.16;20895827;28;20548;-86
2023/01/30 21:30:54;;;;;;;13.43;3.27;;;;;;;5.54;57.64;101232.56;20901399;28;20270;-84
2023/01/30 21:51:17;;;;;;;11.20;3.07;;;;;;;4.99;60.63;101265.19;20893475;28;20216;-86
2023/01/30 22:01:19;;;;;;;11.23;2.97;;;;;;;5.73;57.81;101256.09;20857326;28;20266;-87
2023/01/30 22:11:22;;;;;;;15.67;3.30;;;;;;;5.89;57.48;101269.09;20878585;28;20224;-86
2023/01/30 22:21:26;;;;;;;13.50;2.97;;;;;;;6.26;56.64;101271.00;20912703;28;20727;-86
2023/01/30 22:31:34;;;;;;;12.03;3.37;;;;;;;5.57;58.52;101271.88;20868589;28;20223;-86
2023/01/30 22:41:37;;;;;;;12.03;2.50;;;;;;;5.52;58.48;101274.63;20856600;28;20239;-86
2023/01/30 22:51:40;;;;;;;14.40;2.60;;;;;;;5.58;58.34;101275.50;20911992;28;20224;-85
2023/01/30 23:01:44;;;;;;;14.90;3.50;;;;;;;5.61;58.42;101284.19;20889008;28;20255;-86
2023/01/30 23:22:10;;;;;;;15.47;2.90;;;;;;;5.75;58.12;101295.72;20869185;28;20204;-86
2023/01/30 23:32:13;;;;;;;13.40;3.60;;;;;;;5.76;58.49;101286.28;20872981;28;20247;-88
2023/01/30 23:42:16;;;;;;;12.43;3.20;;;;;;;5.39;59.22;101301.00;20890236;28;20274;-86
2023/01/30 23:52:18;;;;;;;10.70;2.67;;;;;;;5.64;58.74;101293.97;20913445;28;20219;-87
